createdAt,value
2022-09-06T00:01:46.993Z,82.75
2022-09-06T00:04:16.408Z,83.01
2022-09-06T00:06:47.050Z,82.75
2022-09-06T00:09:16.327Z,83.01
2022-09-06T00:11:45.526Z,82.55
2022-09-06T00:14:14.699Z,83.20
2022-09-06T00:16:43.904Z,83.24
2022-09-06T00:19:13.182Z,82.73
2022-09-06T00:21:43.501Z,82.99
2022-09-06T00:24:14.117Z,83.17
2022-09-06T00:26:43.308Z,82.95
2022-09-06T00:29:12.565Z,83.03
2022-09-06T00:31:41.866Z,82.91
2022-09-06T00:34:11.076Z,82.51
2022-09-06T00:36:40.633Z,82.85
2022-09-06T00:39:11.271Z,82.87
2022-09-06T00:41:42.135Z,83.29
2022-09-06T00:44:11.496Z,83.32
2022-09-06T00:46:45.390Z,83.66
2022-09-06T00:49:24.364Z,83.80
2022-09-06T00:51:57.770Z,83.64
2022-09-06T00:54:27.629Z,83.30
2022-09-06T00:56:59.312Z,83.32
2022-09-06T00:59:30.966Z,83.85
2022-09-06T01:02:00.807Z,83.68
2022-09-06T01:04:30.956Z,83.96
2022-09-06T01:07:13.922Z,84.10
2022-09-06T01:10:06.217Z,83.93
2022-09-06T01:12:51.181Z,84.76
2022-09-06T01:15:32.623Z,83.68
2022-09-06T01:18:23.870Z,83.68
2022-09-06T01:21:15.741Z,84.58
2022-09-06T01:24:22.015Z,84.20
2022-09-06T01:27:53.911Z,84.02
2022-09-06T01:30:25.901Z,84.16
2022-09-06T01:33:04.124Z,84.01
2022-09-06T01:35:40.064Z,84.32
2022-09-06T01:38:10.835Z,84.74
2022-09-06T01:40:40.248Z,84.54
2022-09-06T01:43:13.922Z,84.72
2022-09-06T01:46:00.595Z,85.19
2022-09-06T01:48:52.516Z,84.74
2022-09-06T01:51:31.894Z,84.97
2022-09-06T01:54:20.443Z,85.27
2022-09-06T01:57:00.786Z,85.08
2022-09-06T01:59:46.545Z,85.29
2022-09-06T02:02:26.232Z,85.16
2022-09-06T02:05:02.207Z,85.30
2022-09-06T02:07:34.411Z,85.06
2022-09-06T02:10:11.177Z,85.26
2022-09-06T02:12:44.901Z,84.75
2022-09-06T02:15:21.027Z,84.86
2022-09-06T02:17:58.628Z,84.82
2022-09-06T02:20:32.990Z,84.65
2022-09-06T02:23:08.537Z,84.61
2022-09-06T02:25:43.392Z,84.62
2022-09-06T02:28:14.442Z,84.12
2022-09-06T02:30:50.393Z,84.28
2022-09-06T02:33:25.982Z,83.53
2022-09-06T02:35:56.672Z,83.54
2022-09-06T02:38:28.216Z,84.52
2022-09-06T02:40:58.105Z,83.13
2022-09-06T02:43:27.330Z,83.80
2022-09-06T02:45:56.549Z,84.05
2022-09-06T02:48:27.523Z,83.57
2022-09-06T02:50:56.989Z,83.76
2022-09-06T02:53:27.013Z,83.38
2022-09-06T02:55:57.274Z,83.44
2022-09-06T02:58:26.597Z,83.45
2022-09-06T03:00:56.135Z,83.19
2022-09-06T03:03:27.510Z,83.46
2022-09-06T03:05:57.171Z,83.67
2022-09-06T03:08:29.391Z,83.96
2022-09-06T03:10:58.875Z,83.34
2022-09-06T03:13:28.362Z,83.76
2022-09-06T03:16:00.029Z,83.61
2022-09-06T03:18:32.738Z,84.08
2022-09-06T03:21:02.237Z,83.73
2022-09-06T03:23:31.895Z,83.83
2022-09-06T03:26:01.111Z,84.50
2022-09-06T03:28:30.356Z,83.68
2022-09-06T03:31:00.392Z,84.13
2022-09-06T03:33:31.214Z,84.48
2022-09-06T03:36:04.109Z,83.96
2022-09-06T03:38:33.966Z,83.89
2022-09-06T03:41:03.501Z,84.72
2022-09-06T03:43:32.977Z,84.36
2022-09-06T03:46:02.656Z,84.18
2022-09-06T03:48:33.404Z,85.02
2022-09-06T03:51:02.816Z,84.56
2022-09-06T03:53:32.180Z,85.46
2022-09-06T03:56:01.578Z,84.83
2022-09-06T03:58:33.601Z,85.60
2022-09-06T04:01:06.116Z,85.29
2022-09-06T04:03:37.082Z,85.57
2022-09-06T04:06:07.944Z,85.37
2022-09-06T04:08:37.688Z,86.05
2022-09-06T04:11:07.862Z,86.17
2022-09-06T04:13:38.136Z,85.63
2022-09-06T04:16:08.199Z,86.32
2022-09-06T04:18:39.119Z,86.75
2022-09-06T04:21:08.721Z,85.43
2022-09-06T04:23:40.044Z,86.26
2022-09-06T04:26:09.673Z,85.22
2022-09-06T04:28:38.928Z,85.00
2022-09-06T04:31:08.154Z,85.23
2022-09-06T04:33:39.871Z,84.82
2022-09-06T04:36:11.907Z,85.21
2022-09-06T04:38:44.198Z,85.21
2022-09-06T04:41:16.415Z,85.54
2022-09-06T04:43:46.036Z,85.22
2022-09-06T04:46:22.868Z,86.00
2022-09-06T04:48:54.780Z,85.94
2022-09-06T04:51:25.846Z,85.85
2022-09-06T04:53:55.431Z,86.45
2022-09-06T04:56:27.393Z,86.60
2022-09-06T04:58:57.430Z,86.58
2022-09-06T05:01:27.442Z,86.20
2022-09-06T05:03:58.223Z,85.85
2022-09-06T05:06:27.682Z,86.42
2022-09-06T05:08:56.849Z,86.75
2022-09-06T05:11:26.270Z,86.98
2022-09-06T05:13:55.735Z,86.66
2022-09-06T05:16:25.030Z,86.70
2022-09-06T05:18:54.380Z,86.63
2022-09-06T05:21:25.122Z,86.62
2022-09-06T05:23:58.553Z,86.48
2022-09-06T05:26:28.333Z,86.95
2022-09-06T05:28:57.557Z,85.99
2022-09-06T05:31:29.608Z,86.37
2022-09-06T05:33:59.955Z,86.52
2022-09-06T05:36:32.180Z,85.90
2022-09-06T05:39:01.576Z,85.20
2022-09-06T05:41:30.962Z,84.77
2022-09-06T05:44:00.383Z,85.00
2022-09-06T05:46:29.707Z,85.50
2022-09-06T05:49:04.954Z,85.34
2022-09-06T05:51:36.021Z,85.00
2022-09-06T05:54:05.633Z,84.99
2022-09-06T05:56:35.045Z,84.18
2022-09-06T05:59:04.602Z,84.76
2022-09-06T06:01:37.904Z,85.15
2022-09-06T06:04:08.141Z,85.10
2022-09-06T06:06:41.244Z,84.88
2022-09-06T06:09:10.693Z,84.76
2022-09-06T06:11:43.305Z,84.74
2022-09-06T06:14:12.734Z,84.53
2022-09-06T06:16:44.978Z,84.59
2022-09-06T06:19:14.602Z,84.17
2022-09-06T06:21:45.159Z,83.72
2022-09-06T06:24:14.540Z,83.41
2022-09-06T06:26:45.841Z,83.89
2022-09-06T06:29:15.394Z,83.80
2022-09-06T06:31:44.849Z,83.28
2022-09-06T06:34:14.167Z,83.38
2022-09-06T06:36:46.613Z,82.88
2022-09-06T06:39:16.999Z,83.16
2022-09-06T06:41:46.521Z,83.05
2022-09-06T06:44:39.611Z,82.62
2022-09-06T06:47:09.003Z,82.19
2022-09-06T06:49:39.393Z,81.51
2022-09-06T06:52:10.088Z,81.85
2022-09-06T06:54:39.571Z,79.81
2022-09-06T06:57:09.661Z,80.76
2022-09-06T06:59:39.965Z,79.69
2022-09-06T07:02:12.803Z,79.15
2022-09-06T07:04:42.169Z,80.28
2022-09-06T07:12:56.960Z,79.15
2022-09-06T07:15:26.950Z,78.02
2022-09-06T07:17:56.951Z,78.17
2022-09-06T07:20:27.359Z,78.22
2022-09-06T07:25:56.041Z,77.82
2022-09-06T07:28:25.642Z,78.24
2022-09-06T07:30:56.448Z,78.34
2022-09-06T07:33:26.258Z,77.69
2022-09-06T07:36:01.448Z,77.82
2022-09-06T07:38:33.001Z,77.94
2022-09-06T07:41:05.320Z,77.40
2022-09-06T07:43:35.768Z,76.31
2022-09-06T07:46:07.963Z,75.78
2022-09-06T07:48:40.358Z,75.96
2022-09-06T07:51:12.758Z,76.21
2022-09-06T07:53:45.275Z,75.62
2022-09-06T07:56:15.087Z,75.72
2022-09-06T07:58:44.418Z,76.18
2022-09-06T08:01:28.025Z,76.27
2022-09-06T08:03:58.373Z,75.94
2022-09-06T08:06:31.490Z,76.06
2022-09-06T08:09:02.805Z,76.04
2022-09-06T08:11:35.110Z,76.07
2022-09-06T08:14:07.040Z,75.99
2022-09-06T08:16:38.709Z,75.26
2022-09-06T08:19:10.592Z,75.98
2022-09-06T08:21:40.666Z,75.34
2022-09-06T08:24:11.736Z,74.67
2022-09-06T08:26:42.830Z,74.82
2022-09-06T08:29:14.033Z,74.65
2022-09-06T08:31:45.087Z,74.48
2022-09-06T08:34:16.105Z,74.83
2022-09-06T08:36:46.587Z,74.70
2022-09-06T08:39:17.350Z,74.23
2022-09-06T08:41:56.534Z,73.85
2022-09-06T08:47:21.838Z,72.62
2022-09-06T08:49:55.360Z,71.55
2022-09-06T08:53:13.612Z,69.81
2022-09-06T08:55:50.326Z,69.42
2022-09-06T08:58:36.651Z,67.91
2022-09-06T09:01:14.011Z,68.19
2022-09-06T09:03:45.373Z,68.46
2022-09-06T09:06:14.736Z,68.55
2022-09-06T09:08:49.430Z,69.30
2022-09-06T09:11:22.790Z,69.05
2022-09-06T09:13:56.857Z,68.63
2022-09-06T09:16:26.657Z,68.53
2022-09-06T09:19:00.652Z,67.95
2022-09-06T09:21:32.929Z,67.77
2022-09-06T09:24:07.694Z,66.94
2022-09-06T09:26:50.788Z,67.61
2022-09-06T09:29:25.358Z,67.48
2022-09-06T09:31:57.441Z,66.40
2022-09-06T09:34:33.984Z,66.52
2022-09-06T09:40:04.098Z,65.40
2022-09-06T09:42:38.690Z,64.57
2022-09-06T09:45:31.232Z,64.98
2022-09-06T09:48:20.990Z,66.05
2022-09-06T09:50:50.585Z,66.46
2022-09-06T09:53:23.023Z,67.18
2022-09-06T09:55:58.851Z,67.78
2022-09-06T09:58:36.286Z,68.01
2022-09-06T10:01:22.821Z,68.16
2022-09-06T10:09:37.587Z,67.81
2022-09-06T10:12:07.762Z,67.54
2022-09-06T10:14:45.645Z,66.24
2022-09-06T10:17:32.194Z,65.50
2022-09-06T10:20:07.843Z,64.83
2022-09-06T10:22:53.007Z,64.62
2022-09-06T10:25:49.549Z,65.62
2022-09-06T10:28:36.574Z,65.57
2022-09-06T10:31:37.999Z,65.96
2022-09-06T10:34:29.490Z,67.60
2022-09-06T10:37:10.719Z,69.55
2022-09-06T10:39:50.969Z,70.82
2022-09-06T10:42:34.092Z,73.85
2022-09-06T10:45:25.262Z,74.01
2022-09-06T10:48:03.287Z,76.16
2022-09-06T10:50:45.026Z,77.07
2022-09-06T10:53:26.241Z,77.73
2022-09-06T10:56:06.332Z,78.92
2022-09-06T11:01:43.785Z,80.16
2022-09-06T11:04:26.463Z,81.21
2022-09-06T11:07:03.427Z,82.53
2022-09-06T11:09:40.543Z,82.44
2022-09-06T11:12:16.278Z,82.30
2022-09-06T11:14:45.532Z,82.36
2022-09-06T11:17:28.227Z,83.28
2022-09-06T11:20:05.017Z,82.68
2022-09-06T11:23:14.847Z,83.46
2022-09-06T11:26:18.467Z,83.32
2022-09-06T11:28:53.718Z,83.88
2022-09-06T11:34:24.748Z,83.92
2022-09-06T11:36:59.075Z,84.33
2022-09-06T11:43:17.064Z,84.97
2022-09-06T11:45:50.930Z,84.53
2022-09-06T11:49:01.316Z,84.86
2022-09-06T11:51:38.343Z,84.94
2022-09-06T11:54:42.682Z,85.51
2022-09-06T11:57:17.621Z,85.43
2022-09-06T12:00:04.877Z,86.00
2022-09-06T12:02:39.287Z,85.45
2022-09-06T12:05:31.949Z,86.36
2022-09-06T12:08:29.310Z,86.17
2022-09-06T12:11:07.165Z,86.06
2022-09-06T12:13:52.680Z,86.54
2022-09-06T12:16:22.434Z,86.52
2022-09-06T12:19:04.968Z,86.76
2022-09-06T14:23:52.421Z,85.47
2022-09-06T14:26:23.229Z,85.52
2022-09-06T14:28:53.163Z,85.01
2022-09-06T14:31:26.104Z,85.65
2022-09-06T14:33:56.681Z,85.06
2022-09-06T14:36:29.375Z,85.33
2022-09-06T14:39:01.315Z,85.45
2022-09-06T14:41:30.923Z,85.31
2022-09-06T14:44:00.978Z,85.98
2022-09-06T14:46:30.869Z,85.61
2022-09-06T14:49:02.467Z,84.81
2022-09-06T14:51:32.145Z,85.00
2022-09-06T14:54:06.368Z,83.31
2022-09-06T14:56:36.069Z,83.50
2022-09-06T14:59:05.595Z,81.88
2022-09-06T15:01:38.656Z,81.90
2022-09-06T15:04:10.459Z,81.59
2022-09-06T15:06:45.026Z,81.67
2022-09-06T15:09:16.224Z,80.42
2022-09-06T15:11:48.289Z,81.72
2022-09-06T15:14:22.568Z,80.38
2022-09-06T15:16:56.517Z,80.25
2022-09-06T15:19:27.035Z,81.59
2022-09-06T15:21:57.407Z,80.99
2022-09-06T15:24:28.779Z,81.11
2022-09-06T15:26:58.578Z,79.67
2022-09-06T15:29:28.569Z,79.80
2022-09-06T15:31:57.836Z,80.19
2022-09-06T15:34:28.132Z,78.74
2022-09-06T15:36:57.849Z,75.42
2022-09-06T15:39:28.736Z,77.18
2022-09-06T15:41:58.416Z,76.59
2022-09-06T15:44:27.744Z,76.44
2022-09-06T15:46:59.240Z,73.95
2022-09-06T15:49:32.069Z,73.26
2022-09-06T15:52:03.698Z,73.12
2022-09-06T15:54:51.881Z,74.40
2022-09-06T15:57:21.224Z,74.62
2022-09-06T15:59:50.422Z,74.20
2022-09-06T16:02:19.668Z,74.23
2022-09-06T16:04:48.918Z,73.71
2022-09-06T16:07:18.650Z,73.60
2022-09-06T16:09:49.370Z,72.57
2022-09-06T16:12:18.707Z,72.55
2022-09-06T16:14:47.916Z,72.76
2022-09-06T16:17:17.080Z,73.07
2022-09-06T16:19:46.295Z,72.96
2022-09-06T16:22:15.517Z,73.09
2022-09-06T16:24:44.970Z,72.77
2022-09-06T16:27:15.543Z,72.06
2022-09-06T16:29:45.349Z,71.87
2022-09-06T16:32:14.638Z,70.45
2022-09-06T16:34:43.909Z,70.10
2022-09-06T16:37:13.040Z,69.98
2022-09-06T16:39:43.220Z,67.12
2022-09-06T16:42:13.419Z,67.98
2022-09-06T16:44:44.080Z,67.71
2022-09-06T16:47:16.438Z,68.50
2022-09-06T16:49:46.254Z,69.16
2022-09-06T16:52:15.547Z,69.72
2022-09-06T16:54:44.856Z,69.42
2022-09-06T16:57:14.996Z,70.02
2022-09-06T16:59:45.747Z,70.48
2022-09-06T17:02:15.161Z,70.96
2022-09-06T17:04:44.468Z,71.12
2022-09-06T17:07:14.432Z,70.82
2022-09-06T17:09:43.838Z,70.86
2022-09-06T17:12:13.324Z,71.24
2022-09-06T17:14:42.631Z,71.36
2022-09-06T17:17:13.399Z,71.40
2022-09-06T17:19:43.384Z,71.90
2022-09-06T17:22:14.922Z,71.58
2022-09-06T17:24:44.195Z,72.15
2022-09-06T17:27:13.514Z,72.18
2022-09-06T17:29:42.732Z,71.91
2022-09-06T17:32:13.296Z,71.97
2022-09-06T17:34:42.687Z,72.23
2022-09-06T17:37:12.326Z,72.73
2022-09-06T17:39:42.422Z,72.79
2022-09-06T17:42:11.706Z,72.85
2022-09-06T17:44:40.967Z,72.97
2022-09-06T17:47:14.095Z,73.50
2022-09-06T17:49:45.356Z,73.14
2022-09-06T17:52:14.765Z,73.39
2022-09-06T17:54:46.776Z,73.29
2022-09-06T17:57:16.126Z,73.78
2022-09-06T17:59:45.330Z,73.57
2022-09-06T18:02:14.752Z,73.82
2022-09-06T18:04:45.611Z,73.88
2022-09-06T18:07:15.042Z,74.55
2022-09-06T18:09:44.573Z,74.50
2022-09-06T18:12:13.920Z,75.69
2022-09-06T18:14:43.196Z,75.51
2022-09-06T18:17:12.550Z,75.47
2022-09-06T18:19:41.894Z,75.91
2022-09-06T18:22:12.492Z,76.43
2022-09-06T18:24:41.770Z,76.88
2022-09-06T18:27:11.416Z,77.70
2022-09-06T18:29:40.685Z,77.18
2022-09-06T18:32:10.297Z,77.60
2022-09-06T18:34:39.821Z,78.64
2022-09-06T18:37:09.107Z,79.54
2022-09-06T18:39:42.003Z,78.65
2022-09-06T18:42:12.360Z,79.06
2022-09-06T18:44:42.318Z,79.62
2022-09-06T18:47:13.444Z,80.08
2022-09-06T18:49:44.267Z,79.99
2022-09-06T18:52:13.962Z,80.17
2022-09-06T18:54:44.970Z,80.24
2022-09-06T18:57:15.954Z,80.82
2022-09-06T18:59:46.217Z,81.16
2022-09-06T19:02:16.158Z,81.02
2022-09-06T19:04:46.174Z,80.14
2022-09-06T19:07:15.546Z,80.28
2022-09-06T19:09:46.555Z,80.44
2022-09-06T19:12:16.083Z,80.56
2022-09-06T19:14:45.641Z,80.87
2022-09-06T19:17:15.099Z,80.72
2022-09-06T19:19:44.454Z,81.64
2022-09-06T19:22:13.888Z,81.06
2022-09-06T19:24:44.050Z,80.95
2022-09-06T19:27:14.950Z,82.05
2022-09-06T19:29:47.205Z,81.95
2022-09-06T19:32:18.847Z,82.37
2022-09-06T19:34:48.239Z,81.61
2022-09-06T19:37:20.218Z,82.26
2022-09-06T19:39:49.764Z,82.54
2022-09-06T19:42:20.747Z,81.74
2022-09-06T19:44:50.024Z,82.34
2022-09-06T19:47:19.315Z,82.38
2022-09-06T19:49:48.796Z,82.26
2022-09-06T19:52:18.587Z,81.65
2022-09-06T19:54:48.057Z,81.66
2022-09-06T19:57:17.378Z,82.04
2022-09-06T19:59:48.027Z,82.42
2022-09-06T20:02:17.417Z,82.13
2022-09-06T20:04:47.081Z,82.58
2022-09-06T20:07:16.555Z,82.18
2022-09-06T20:09:48.483Z,81.93
2022-09-06T20:12:21.171Z,81.47
2022-09-06T20:14:51.776Z,82.03
2022-09-06T20:17:33.337Z,81.77
2022-09-06T20:20:04.743Z,81.72
2022-09-06T20:22:34.071Z,81.57
2022-09-06T20:25:03.403Z,81.23
2022-09-06T20:27:32.618Z,81.07
2022-09-06T20:30:03.756Z,81.93
2022-09-06T20:32:33.945Z,81.56
2022-09-06T20:35:03.298Z,81.01
2022-09-06T20:37:32.705Z,80.90
2022-09-06T20:40:02.239Z,80.86
2022-09-06T20:42:31.936Z,81.24
2022-09-06T20:45:03.747Z,80.86
2022-09-06T20:47:33.093Z,81.35
2022-09-06T20:50:02.549Z,80.98
2022-09-06T20:52:34.446Z,80.95
2022-09-06T20:55:03.894Z,81.30
2022-09-06T20:57:33.304Z,81.38
2022-09-06T21:00:05.276Z,81.13
2022-09-06T21:02:34.645Z,80.96
2022-09-06T21:05:05.459Z,81.05
2022-09-06T21:07:35.033Z,81.20
2022-09-06T21:10:04.481Z,81.15
2022-09-06T21:12:33.942Z,82.12
2022-09-06T21:15:04.871Z,81.77
2022-09-06T21:17:34.225Z,81.06
2022-09-06T21:20:04.767Z,81.76
2022-09-06T21:22:34.052Z,81.85
2022-09-06T21:25:03.661Z,81.78
2022-09-06T21:27:33.507Z,81.36
2022-09-06T21:30:04.333Z,81.19
2022-09-06T21:32:33.674Z,81.31
2022-09-06T21:35:06.643Z,80.88
2022-09-06T21:37:35.905Z,81.58
2022-09-06T21:40:05.829Z,81.85
2022-09-06T21:42:35.157Z,81.30
2022-09-06T21:45:06.931Z,81.66
2022-09-06T21:47:36.196Z,81.40
2022-09-06T21:50:06.166Z,81.48
2022-09-06T21:52:35.482Z,81.44
2022-09-06T21:55:06.379Z,82.44
2022-09-06T21:57:35.688Z,81.98
2022-09-06T22:00:09.253Z,82.48
2022-09-06T22:02:38.699Z,82.47
2022-09-06T22:05:08.579Z,82.74
2022-09-06T22:07:38.371Z,82.94
2022-09-06T22:10:08.449Z,82.56
2022-09-06T22:12:37.746Z,82.92
2022-09-06T22:15:10.719Z,82.94
2022-09-06T22:17:40.069Z,82.87
2022-09-06T22:20:11.994Z,83.35
2022-09-06T22:22:41.398Z,83.08
2022-09-06T22:25:11.182Z,83.77
2022-09-06T22:27:40.390Z,82.54
2022-09-06T22:30:12.741Z,83.15
2022-09-06T22:32:42.235Z,82.97
2022-09-06T22:35:11.794Z,83.17
2022-09-06T22:37:41.232Z,84.27
2022-09-06T22:40:12.556Z,84.20
2022-09-06T22:42:41.823Z,84.73
2022-09-06T22:45:13.217Z,84.53
2022-09-06T22:47:42.506Z,84.86
2022-09-06T22:50:12.558Z,85.49
2022-09-06T22:52:41.750Z,84.61
2022-09-06T22:55:12.530Z,85.54
2022-09-06T22:57:41.781Z,85.75
2022-09-06T23:00:15.180Z,85.03
2022-09-06T23:02:44.449Z,85.51
2022-09-06T23:05:13.633Z,84.64
2022-09-06T23:07:43.562Z,84.96
2022-09-06T23:10:12.929Z,85.34
2022-09-06T23:12:42.174Z,84.72
2022-09-06T23:15:13.192Z,85.91
2022-09-06T23:17:42.415Z,85.52
2022-09-06T23:20:11.903Z,85.32
2022-09-06T23:22:41.292Z,85.99
2022-09-06T23:25:11.343Z,86.14
2022-09-06T23:27:40.762Z,85.36
2022-09-06T23:30:12.910Z,86.33
2022-09-06T23:32:42.068Z,85.97
2022-09-06T23:35:11.724Z,86.50
2022-09-06T23:37:41.085Z,86.04
2022-09-06T23:40:11.485Z,86.57
2022-09-06T23:42:40.828Z,87.04
2022-09-06T23:45:12.623Z,87.15
2022-09-06T23:47:41.922Z,87.52
2022-09-06T23:50:12.002Z,87.33
2022-09-06T23:52:41.174Z,86.99
2022-09-06T23:55:11.264Z,87.54
2022-09-06T23:57:40.471Z,87.54
